Time;durP1;ratioP1;P1;durP2;ratioP2;P2;SDS_P1;SDS_P2;PMS_P1;PMS_P2;Temp;Humidity;BMP_temperature;BMP_pressure;BME280_temperature;BME280_humidity;BME280_pressure;Samples;Min_cycle;Max_cycle;Signal;HPM_P1;HPM_P2
2022/05/25 00:00:11;;;;;;;;;;;;;;;22.39;52.15;99649.06;2067521;28;19958;-57
2022/05/25 00:01:11;;;;;;;;;;;;;;;22.38;51.98;99645.47;2067736;28;20201;-57
2022/05/25 00:02:13;;;;;;;;;;;;;;;22.38;51.84;99650.97;2066575;28;19975;-57
2022/05/25 00:03:14;;;;;;;;;;;;;;;22.38;52.09;99639.97;2066910;28;20329;-57
2022/05/25 00:04:14;;;;;;;;;;;;;;;22.38;52.10;99636.38;2065273;28;19944;-57
2022/05/25 00:05:15;;;;;;;;;;;;;;;22.39;51.92;99629.84;2065071;28;20599;-57
2022/05/25 00:06:16;;;;;;;;;;;;;;;22.38;51.97;99639.13;2068104;28;19924;-57
2022/05/25 00:07:17;;;;;;;;;;;;;;;22.38;52.13;99633.63;2068232;28;19909;-57
2022/05/25 00:08:18;;;;;;;;;;;;;;;22.38;51.92;99639.13;2066507;28;19917;-57
2022/05/25 00:09:18;;;;;;;;;;;;;;;22.38;51.97;99633.63;2067770;28;19920;-57
2022/05/25 00:10:18;;;;;;;;;;;;;;;22.38;51.92;99633.63;2066825;28;19985;-57
2022/05/25 00:11:19;;;;;;;;;;;;;;;22.37;52.07;99632.78;2067531;28;19917;-57
2022/05/25 00:12:21;;;;;;;;;;;;;;;22.38;51.91;99639.13;2067289;28;19920;-57
2022/05/25 00:13:23;;;;;;;;;;;;;;;22.37;52.01;99642.94;2067121;28;19963;-57
2022/05/25 00:14:23;;;;;;;;;;;;;;;22.36;51.95;99630.22;2067019;28;19909;-56
2022/05/25 00:15:24;;;;;;;;;;;;;;;22.36;51.81;99639.28;2067362;28;19924;-58
2022/05/25 00:16:24;;;;;;;;;;;;;;;22.37;51.94;99640.19;2065161;28;19921;-56
2022/05/25 00:17:24;;;;;;;;;;;;;;;22.35;52.14;99639.50;2066274;28;19927;-58
2022/05/25 00:18:25;;;;;;;;;;;;;;;22.36;52.10;99641.19;2071165;28;19972;-57
2022/05/25 00:20:44;;;;;;;;;;;;;;;22.35;52.16;99628.50;2072769;28;20654;-57
2022/05/25 00:21:44;;;;;;;;;;;;;;;22.35;52.07;99643.09;2064994;28;19917;-57
2022/05/25 00:22:46;;;;;;;;;;;;;;;22.35;51.91;99634.00;2066437;28;20391;-57
2022/05/25 00:23:46;;;;;;;;;;;;;;;22.35;52.05;99639.50;2064095;28;19928;-57
2022/05/25 00:24:47;;;;;;;;;;;;;;;22.35;51.99;99639.50;2063481;28;19924;-57
2022/05/25 00:25:47;;;;;;;;;;;;;;;22.35;51.95;99645.00;2069227;28;19936;-57
2022/05/25 00:26:48;;;;;;;;;;;;;;;22.35;52.06;99643.09;2065080;28;19960;-57
2022/05/25 00:27:48;;;;;;;;;;;;;;;22.34;52.10;99643.25;2065939;28;19959;-57
2022/05/25 00:28:49;;;;;;;;;;;;;;;22.35;51.86;99653.22;2064840;28;19956;-57
2022/05/25 00:29:49;;;;;;;;;;;;;;;22.35;52.03;99647.75;2069544;28;19905;-57
2022/05/25 00:30:49;;;;;;;;;;;;;;;22.35;52.05;99651.34;2068690;28;19917;-56
2022/05/25 00:31:50;;;;;;;;;;;;;;;22.35;51.96;99645.00;2068910;28;20736;-57
2022/05/25 00:32:50;;;;;;;;;;;;;;;22.35;52.05;99645.00;2065366;28;20308;-57
2022/05/25 00:33:51;;;;;;;;;;;;;;;22.34;52.04;99643.25;2065724;28;19928;-55
2022/05/25 00:34:51;;;;;;;;;;;;;;;22.35;51.95;99642.25;2065920;28;19952;-57
2022/05/25 00:35:51;;;;;;;;;;;;;;;22.34;52.05;99646.00;2070194;28;20271;-58
2022/05/25 00:36:52;;;;;;;;;;;;;;;22.34;51.95;99643.25;2063638;28;20270;-57
2022/05/25 00:37:52;;;;;;;;;;;;;;;22.35;52.14;99645.00;2065729;28;19971;-57
2022/05/25 00:38:53;;;;;;;;;;;;;;;22.34;51.92;99638.66;2063900;28;20316;-56
2022/05/25 00:39:53;;;;;;;;;;;;;;;22.34;52.00;99637.78;2066546;28;19945;-57
2022/05/25 00:40:54;;;;;;;;;;;;;;;22.34;51.79;99640.50;2069371;28;19917;-57
2022/05/25 00:41:55;;;;;;;;;;;;;;;22.34;51.88;99626.78;2075916;28;20388;-57
2022/05/25 00:42:55;;;;;;;;;;;;;;;22.34;52.15;99640.50;2077060;28;19924;-58
2022/05/25 00:43:56;;;;;;;;;;;;;;;22.33;51.87;99636.94;2070031;28;20267;-57
2022/05/25 00:44:57;;;;;;;;;;;;;;;22.33;51.93;99641.56;2067166;28;20324;-57
2022/05/25 00:46:00;;;;;;;;;;;;;;;22.33;52.06;99638.81;2074285;28;20289;-57
2022/05/25 00:47:00;;;;;;;;;;;;;;;22.33;51.99;99636.94;2067493;28;20314;-57
2022/05/25 00:48:01;;;;;;;;;;;;;;;22.32;52.12;99637.09;2067981;28;19987;-57
2022/05/25 00:49:04;;;;;;;;;;;;;;;22.32;52.07;99640.72;2070496;28;20170;-57
2022/05/25 00:50:05;;;;;;;;;;;;;;;22.33;52.01;99644.31;2067029;28;19920;-57
2022/05/25 00:51:15;;;;;;;;;;;;;;;22.30;52.15;99640.03;2066801;28;19924;-57
2022/05/25 00:52:15;;;;;;;;;;;;;;;22.32;52.12;99639.84;2064581;28;19913;-57
2022/05/25 00:53:16;;;;;;;;;;;;;;;22.32;51.91;99634.34;2066100;28;19921;-57
2022/05/25 00:54:23;;;;;;;;;;;;;;;22.31;52.07;99644.47;2069977;28;19998;-57
2022/05/25 00:55:27;;;;;;;;;;;;;;;22.31;51.93;99639.00;2070670;28;19961;-57
2022/05/25 00:56:29;;;;;;;;;;;;;;;22.31;51.94;99640.88;2068497;28;19917;-57
2022/05/25 00:57:34;;;;;;;;;;;;;;;22.30;52.23;99633.69;2069191;28;19940;-57
2022/05/25 00:58:37;;;;;;;;;;;;;;;22.31;52.02;99632.66;2060897;28;19924;-57
2022/05/25 00:59:54;;;;;;;;;;;;;;;22.30;52.00;99633.69;2067758;28;20212;-57
2022/05/25 01:00:55;;;;;;;;;;;;;;;22.30;52.01;99641.94;2068543;28;19937;-57
2022/05/25 01:01:55;;;;;;;;;;;;;;;22.30;52.13;99631.81;2069434;28;19921;-57
2022/05/25 01:03:05;;;;;;;;;;;;;;;22.30;52.19;99636.44;2068265;28;20913;-57
2022/05/25 01:04:05;;;;;;;;;;;;;;;22.30;52.08;99642.78;2067532;28;19917;-57
2022/05/25 01:05:05;;;;;;;;;;;;;;;22.30;52.20;99640.03;2068246;28;19931;-57
2022/05/25 01:06:14;;;;;;;;;;;;;;;22.30;51.93;99639.19;2065210;28;19931;-57
2022/05/25 01:07:20;;;;;;;;;;;;;;;22.30;52.06;99641.94;2067382;28;19948;-59
2022/05/25 01:08:37;;;;;;;;;;;;;;;22.29;52.23;99637.47;2069047;28;19986;-57
2022/05/25 01:09:40;;;;;;;;;;;;;;;22.30;52.11;99641.94;2069458;28;20223;-57
2022/05/25 01:10:46;;;;;;;;;;;;;;;22.31;52.12;99643.63;2066136;28;19913;-56
2022/05/25 01:11:52;;;;;;;;;;;;;;;22.30;52.00;99637.28;2069682;28;19917;-57
2022/05/25 01:13:02;;;;;;;;;;;;;;;22.30;52.10;99633.69;2069999;28;20163;-57
2022/05/25 01:14:11;;;;;;;;;;;;;;;22.29;51.99;99635.56;2067501;28;20333;-57
2022/05/25 01:15:24;;;;;;;;;;;;;;;22.29;51.95;99634.72;2063120;28;20459;-58
2022/05/25 01:16:43;;;;;;;;;;;;;;;22.29;51.94;99623.75;2077729;28;20026;-57
2022/05/25 01:17:43;;;;;;;;;;;;;;;22.28;52.06;99628.38;2075427;28;19917;-57
2022/05/25 01:18:48;;;;;;;;;;;;;;;22.29;52.08;99623.75;2069729;28;19921;-57
2022/05/25 01:20:08;;;;;;;;;;;;;;;22.29;52.02;99624.59;2070371;28;20091;-57
2022/05/25 01:21:23;;;;;;;;;;;;;;;22.28;52.31;99630.28;2070420;28;20429;-57
2022/05/25 01:22:47;;;;;;;;;;;;;;;22.28;52.13;99628.38;2072820;28;20313;-57
2022/05/25 01:23:51;;;;;;;;;;;;;;;22.28;52.15;99630.28;2068461;28;20616;-57
2022/05/25 01:25:10;;;;;;;;;;;;;;;22.28;52.03;99638.50;2067164;28;20417;-57
2022/05/25 01:26:28;;;;;;;;;;;;;;;22.28;51.99;99630.28;2062706;28;19958;-57
2022/05/25 01:27:28;;;;;;;;;;;;;;;22.26;52.25;99628.56;2066990;28;19913;-57
2022/05/25 01:28:49;;;;;;;;;;;;;;;22.26;52.24;99634.03;2067783;28;20685;-57
2022/05/25 01:30:08;;;;;;;;;;;;;;;22.26;52.16;99638.69;2067265;28;19920;-57
2022/05/25 01:31:11;;;;;;;;;;;;;;;22.26;52.24;99641.44;2063325;28;19921;-57
2022/05/25 01:32:14;;;;;;;;;;;;;;;22.25;52.08;99643.31;2068500;28;20608;-57
2022/05/25 01:33:20;;;;;;;;;;;;;;;22.25;51.93;99635.09;2067771;28;19921;-57
2022/05/25 01:34:24;;;;;;;;;;;;;;;22.25;52.20;99635.09;2070044;28;19939;-57
2022/05/25 01:35:43;;;;;;;;;;;;;;;22.25;52.18;99634.25;2067019;28;19925;-58
2022/05/25 01:36:48;;;;;;;;;;;;;;;22.25;52.10;99646.06;2068971;28;19917;-57
2022/05/25 01:37:48;;;;;;;;;;;;;;;22.25;52.14;99637.84;2069189;28;19917;-58
2022/05/25 01:38:51;;;;;;;;;;;;;;;22.25;52.14;99635.09;2068535;28;19921;-57
2022/05/25 01:40:20;;;;;;;;;;;;;;;22.25;52.02;99639.72;2064823;28;19967;-57
2022/05/25 01:41:43;;;;;;;;;;;;;;;22.25;51.96;99637.00;2059720;28;19914;-57
2022/05/25 01:42:48;;;;;;;;;;;;;;;22.24;51.92;99633.41;2058059;28;20705;-57
2022/05/25 01:43:51;;;;;;;;;;;;;;;22.24;52.30;99627.91;2066354;28;20027;-57
2022/05/25 01:44:54;;;;;;;;;;;;;;;22.24;52.25;99627.91;2067256;28;19924;-57
2022/05/25 01:45:57;;;;;;;;;;;;;;;22.24;52.04;99633.41;2070047;28;19921;-57
2022/05/25 01:47:01;;;;;;;;;;;;;;;22.25;52.22;99623.25;2070976;28;20070;-57
2022/05/25 01:48:04;;;;;;;;;;;;;;;22.24;52.31;99622.41;2063906;28;20117;-57
2022/05/25 01:49:07;;;;;;;;;;;;;;;22.24;52.23;99622.41;2064065;28;19917;-57
2022/05/25 01:50:13;;;;;;;;;;;;;;;22.25;52.10;99626.00;2069780;28;19955;-57
2022/05/25 01:51:16;;;;;;;;;;;;;;;22.24;52.05;99622.41;2069965;28;19947;-57
2022/05/25 01:52:20;;;;;;;;;;;;;;;22.24;52.28;99625.16;2077972;28;20262;-57
2022/05/25 01:53:22;;;;;;;;;;;;;;;22.24;52.11;99622.41;2071400;28;19909;-58
2022/05/25 01:54:24;;;;;;;;;;;;;;;22.25;52.32;99628.75;2071212;28;19947;-57
2022/05/25 01:55:28;;;;;;;;;;;;;;;22.23;52.24;99614.34;2073830;28;19927;-57
2022/05/25 01:56:30;;;;;;;;;;;;;;;22.24;52.22;99611.44;2067358;28;19940;-57
2022/05/25 01:57:33;;;;;;;;;;;;;;;22.22;52.21;99619.00;2075839;28;19916;-57
2022/05/25 01:58:36;;;;;;;;;;;;;;;22.23;52.38;99608.84;2066964;28;19924;-58
2022/05/25 01:59:36;;;;;;;;;;;;;;;22.22;52.44;99605.25;2068562;28;20732;-57
2022/05/25 02:00:39;;;;;;;;;;;;;;;22.22;52.28;99615.38;2070028;28;20391;-57
2022/05/25 02:04:35;;;;;;;;;;;;;;;22.21;52.29;99611.78;2067690;28;19925;-57
2022/05/25 02:05:36;;;;;;;;;;;;;;;22.20;52.32;99615.56;2066494;28;20285;-57
2022/05/25 02:07:11;;;;;;;;;;;;;;;22.20;52.23;99604.59;2069110;28;19921;-57
2022/05/25 02:08:34;;;;;;;;;;;;;;;22.20;52.44;99607.34;2058288;28;19917;-57
2022/05/25 02:09:41;;;;;;;;;;;;;;;22.20;52.10;99612.81;2058481;28;20153;-57
2022/05/25 02:10:44;;;;;;;;;;;;;;;22.20;52.27;99614.72;2062824;28;19943;-57
2022/05/25 02:11:46;;;;;;;;;;;;;;;22.19;52.25;99613.81;2068048;28;19916;-58
2022/05/25 02:12:49;;;;;;;;;;;;;;;22.20;52.23;99611.97;2067643;28;19964;-57
2022/05/25 02:13:50;;;;;;;;;;;;;;;22.20;52.28;99618.31;2068108;28;19940;-57
2022/05/25 02:15:02;;;;;;;;;;;;;;;22.20;52.37;99625.69;2068810;28;20400;-57
2022/05/25 02:16:16;;;;;;;;;;;;;;;22.19;52.54;99622.03;2069284;28;20600;-57
2022/05/25 02:17:22;;;;;;;;;;;;;;;22.20;52.30;99632.03;2069399;28;20216;-57
2022/05/25 02:18:23;;;;;;;;;;;;;;;22.19;52.19;99635.78;2068606;28;20342;-57
2022/05/25 02:19:35;;;;;;;;;;;;;;;22.19;52.31;99641.25;2071329;28;19952;-57
2022/05/25 02:20:47;;;;;;;;;;;;;;;22.20;52.33;99648.50;2070301;28;20211;-57
2022/05/25 02:21:59;;;;;;;;;;;;;;;22.20;52.32;99647.66;2067796;28;20386;-58
2022/05/25 02:23:08;;;;;;;;;;;;;;;22.21;52.10;99654.84;2070780;28;19952;-57
2022/05/25 02:24:16;;;;;;;;;;;;;;;22.21;52.15;99661.19;2068768;28;19921;-57
2022/05/25 02:25:34;;;;;;;;;;;;;;;22.20;52.49;99664.13;2066501;28;20407;-57
2022/05/25 02:26:44;;;;;;;;;;;;;;;22.19;52.33;99652.25;2062632;28;19913;-57
2022/05/25 02:27:50;;;;;;;;;;;;;;;22.19;52.40;99663.22;2066187;28;19924;-57
2022/05/25 02:28:57;;;;;;;;;;;;;;;22.20;52.43;99658.66;2069757;28;19913;-56
2022/05/25 02:30:13;;;;;;;;;;;;;;;22.20;52.34;99664.97;2068666;28;20490;-57
2022/05/25 02:31:17;;;;;;;;;;;;;;;22.19;52.43;99657.72;2068355;28;19927;-57
2022/05/25 02:32:25;;;;;;;;;;;;;;;22.19;52.37;99660.47;2067460;28;20073;-57
2022/05/25 02:33:31;;;;;;;;;;;;;;;22.19;52.31;99657.72;2067257;28;19928;-57
2022/05/25 02:34:32;;;;;;;;;;;;;;;22.19;52.19;99668.72;2071368;28;20326;-57
2022/05/25 02:35:33;;;;;;;;;;;;;;;22.19;52.32;99671.47;2066087;28;19924;-57
2022/05/25 02:36:35;;;;;;;;;;;;;;;22.19;52.27;99668.72;2068058;28;20020;-57
2022/05/25 02:37:36;;;;;;;;;;;;;;;22.18;52.48;99660.69;2070621;28;19917;-57
2022/05/25 02:38:37;;;;;;;;;;;;;;;22.18;52.48;99661.53;2068079;28;20346;-57
2022/05/25 02:39:38;;;;;;;;;;;;;;;22.18;52.48;99667.00;2067269;28;20349;-57
2022/05/25 02:40:39;;;;;;;;;;;;;;;22.18;52.44;99663.41;2075105;28;19916;-57
2022/05/25 02:41:50;;;;;;;;;;;;;;;22.17;52.31;99662.56;2072674;28;20321;-55
2022/05/25 02:42:50;;;;;;;;;;;;;;;22.18;52.49;99666.16;2067361;28;19990;-57
2022/05/25 02:43:51;;;;;;;;;;;;;;;22.17;52.65;99658.94;2065887;28;20020;-57
2022/05/25 02:44:51;;;;;;;;;;;;;;;22.17;52.32;99665.31;2069703;28;19910;-59
2022/05/25 02:45:52;;;;;;;;;;;;;;;22.16;52.45;99669.09;2072028;28;19920;-57
2022/05/25 02:46:53;;;;;;;;;;;;;;;22.17;52.55;99669.94;2080410;28;20382;-57
2022/05/25 02:47:54;;;;;;;;;;;;;;;22.17;52.35;99670.81;2066278;28;19913;-57
2022/05/25 02:48:55;;;;;;;;;;;;;;;22.16;52.56;99669.09;2066670;28;20182;-57
2022/05/25 02:49:55;;;;;;;;;;;;;;;22.16;52.42;99669.09;2067481;28;19976;-58
2022/05/25 02:50:56;;;;;;;;;;;;;;;22.16;52.64;99663.59;2068728;28;19921;-57
2022/05/25 02:51:56;;;;;;;;;;;;;;;22.15;52.52;99664.63;2070024;28;20674;-57
2022/05/25 02:52:57;;;;;;;;;;;;;;;22.16;52.41;99669.09;2066747;28;20382;-57
2022/05/25 02:53:58;;;;;;;;;;;;;;;22.15;52.37;99667.38;2067445;28;19921;-57
2022/05/25 02:54:58;;;;;;;;;;;;;;;22.16;52.46;99662.75;2072993;28;19913;-58
2022/05/25 02:55:58;;;;;;;;;;;;;;;22.17;52.34;99667.19;2069491;28;20332;-57
2022/05/25 02:56:59;;;;;;;;;;;;;;;22.16;52.24;99671.81;2070991;28;19967;-60
2022/05/25 02:57:59;;;;;;;;;;;;;;;22.17;52.51;99675.41;2065316;28;19921;-57
2022/05/25 02:58:59;;;;;;;;;;;;;;;22.16;52.44;99668.22;2064230;28;20249;-57
2022/05/25 03:00:00;;;;;;;;;;;;;;;22.17;52.50;99669.94;2072248;28;20711;-57
2022/05/25 03:01:01;;;;;;;;;;;;;;;22.15;52.57;99670.13;2063651;28;20189;-57
2022/05/25 03:02:04;;;;;;;;;;;;;;;22.15;52.44;99672.03;2070820;28;20526;-57
2022/05/25 03:03:05;;;;;;;;;;;;;;;22.15;52.42;99675.63;2077283;28;19959;-57
2022/05/25 03:04:05;;;;;;;;;;;;;;;22.16;52.23;99685.56;2075094;28;19920;-57
2022/05/25 03:05:06;;;;;;;;;;;;;;;22.16;52.42;99680.06;2068705;28;20019;-57
2022/05/25 03:06:07;;;;;;;;;;;;;;;22.16;52.41;99680.06;2068049;28;19924;-56
2022/05/25 03:07:08;;;;;;;;;;;;;;;22.15;52.53;99686.59;2064900;28;19947;-57
2022/05/25 03:08:09;;;;;;;;;;;;;;;22.16;52.31;99685.56;2069542;28;19956;-56
2022/05/25 03:09:10;;;;;;;;;;;;;;;22.16;52.53;99690.19;2068868;28;20279;-57
2022/05/25 03:10:10;;;;;;;;;;;;;;;22.15;52.51;99689.34;2068460;28;19913;-57
2022/05/25 03:11:11;;;;;;;;;;;;;;;22.15;52.40;99694.84;2067489;28;20243;-57
2022/05/25 03:12:13;;;;;;;;;;;;;;;22.15;52.42;99685.75;2068117;28;20039;-57
2022/05/25 03:13:13;;;;;;;;;;;;;;;22.15;52.46;99694.00;2069057;28;20247;-57
2022/05/25 03:14:14;;;;;;;;;;;;;;;22.15;52.44;99697.59;2063951;28;20011;-56
2022/05/25 03:15:14;;;;;;;;;;;;;;;22.14;52.58;99690.34;2066609;28;19914;-57
2022/05/25 03:16:15;;;;;;;;;;;;;;;22.15;52.57;99694.00;2061355;28;19921;-57
2022/05/25 03:17:16;;;;;;;;;;;;;;;22.13;52.55;99696.91;2067034;28;19909;-57
2022/05/25 03:18:16;;;;;;;;;;;;;;;22.15;52.44;99704.97;2068639;28;20385;-57
2022/05/25 03:19:17;;;;;;;;;;;;;;;22.13;52.54;99707.88;2067017;28;20096;-56
2022/05/25 03:20:18;;;;;;;;;;;;;;;22.13;52.54;99696.91;2068440;28;20135;-57
2022/05/25 03:21:18;;;;;;;;;;;;;;;22.13;52.68;99707.88;2067772;28;19916;-57
2022/05/25 03:22:19;;;;;;;;;;;;;;;22.13;52.62;99698.78;2067443;28;20403;-57
2022/05/25 03:23:20;;;;;;;;;;;;;;;22.13;52.45;99696.91;2067822;28;20312;-57
2022/05/25 03:24:20;;;;;;;;;;;;;;;22.13;52.69;99702.38;2066174;28;20011;-57
2022/05/25 03:25:21;;;;;;;;;;;;;;;22.12;52.48;99706.19;2068942;28;19937;-56
2022/05/25 03:26:21;;;;;;;;;;;;;;;22.13;52.59;99707.03;2067271;28;19909;-57
2022/05/25 03:27:22;;;;;;;;;;;;;;;22.12;52.70;99706.19;2065358;28;19921;-57
2022/05/25 03:28:22;;;;;;;;;;;;;;;22.13;52.74;99702.38;2068930;28;19999;-58
2022/05/25 03:29:22;;;;;;;;;;;;;;;22.13;52.58;99707.88;2067518;28;20275;-57
2022/05/25 03:30:23;;;;;;;;;;;;;;;22.11;52.73;99704.44;2066616;28;19965;-57
2022/05/25 03:31:23;;;;;;;;;;;;;;;22.12;52.72;99706.19;2067038;28;19993;-57
2022/05/25 03:32:24;;;;;;;;;;;;;;;22.12;52.42;99711.66;2076957;28;19917;-57
2022/05/25 03:33:24;;;;;;;;;;;;;;;22.12;52.69;99711.66;2075524;28;19983;-57
2022/05/25 03:34:24;;;;;;;;;;;;;;;22.12;52.40;99717.16;2064989;28;19967;-57
2022/05/25 03:35:25;;;;;;;;;;;;;;;22.13;52.51;99716.13;2065261;28;19909;-57
2022/05/25 03:36:25;;;;;;;;;;;;;;;22.12;52.60;99717.16;2066911;28;19917;-57
2022/05/25 03:37:26;;;;;;;;;;;;;;;22.12;52.68;99719.91;2064336;28;19920;-57
2022/05/25 03:38:30;;;;;;;;;;;;;;;22.11;52.70;99712.69;2065757;28;20292;-57
2022/05/25 03:39:31;;;;;;;;;;;;;;;22.12;52.44;99711.66;2066384;28;20426;-57
2022/05/25 03:40:31;;;;;;;;;;;;;;;22.12;52.64;99717.16;2064693;28;19964;-57
2022/05/25 03:41:32;;;;;;;;;;;;;;;22.12;52.64;99711.66;2066469;28;19909;-57
2022/05/25 03:42:33;;;;;;;;;;;;;;;22.12;52.67;99719.03;2063882;28;19917;-57
2022/05/25 03:43:35;;;;;;;;;;;;;;;22.12;52.52;99719.03;2068319;28;19909;-57
2022/05/25 03:44:35;;;;;;;;;;;;;;;22.10;52.83;99719.22;2064550;28;19940;-57
2022/05/25 03:45:36;;;;;;;;;;;;;;;22.11;52.70;99720.91;2066542;28;20003;-56
2022/05/25 03:46:37;;;;;;;;;;;;;;;22.11;52.72;99720.06;2063272;28;20011;-57
2022/05/25 03:47:37;;;;;;;;;;;;;;;22.10;52.76;99724.72;2062815;28;20671;-57
2022/05/25 03:48:38;;;;;;;;;;;;;;;22.11;52.61;99720.06;2069021;28;19936;-57
2022/05/25 03:49:38;;;;;;;;;;;;;;;22.11;52.79;99726.41;2066665;28;19940;-57
2022/05/25 03:50:39;;;;;;;;;;;;;;;22.11;52.63;99733.81;2067646;28;19917;-56
2022/05/25 03:51:39;;;;;;;;;;;;;;;22.10;52.65;99730.19;2063116;28;19921;-57
2022/05/25 03:52:40;;;;;;;;;;;;;;;22.10;52.75;99730.19;2069824;28;20321;-57
2022/05/25 03:53:40;;;;;;;;;;;;;;;22.10;52.72;99724.72;2061009;28;19917;-57
2022/05/25 03:54:41;;;;;;;;;;;;;;;22.09;52.82;99733.13;2068055;28;20268;-57
2022/05/25 03:55:42;;;;;;;;;;;;;;;22.10;52.70;99732.06;2062919;28;19916;-57
2022/05/25 03:56:42;;;;;;;;;;;;;;;22.09;52.78;99733.13;2062360;28;20305;-57
2022/05/25 03:57:42;;;;;;;;;;;;;;;22.09;52.59;99731.22;2068982;28;20261;-57
2022/05/25 03:58:43;;;;;;;;;;;;;;;22.08;52.94;99734.16;2063736;28;19924;-57
2022/05/25 03:59:45;;;;;;;;;;;;;;;22.08;52.87;99729.53;2065583;28;19923;-57
2022/05/25 04:00:46;;;;;;;;;;;;;;;22.09;52.80;99738.59;2068364;28;19985;-57
2022/05/25 04:01:46;;;;;;;;;;;;;;;22.09;52.83;99742.19;2064948;28;20036;-57
2022/05/25 04:02:47;;;;;;;;;;;;;;;22.08;52.67;99743.25;2068927;28;20012;-57
2022/05/25 04:03:47;;;;;;;;;;;;;;;22.09;52.72;99744.94;2065273;28;19918;-58
2022/05/25 04:04:47;;;;;;;;;;;;;;;22.09;52.79;99742.19;2063970;28;19924;-57
2022/05/25 04:05:47;;;;;;;;;;;;;;;22.09;52.63;99744.09;2068952;28;19916;-57
2022/05/25 04:06:48;;;;;;;;;;;;;;;22.09;52.70;99747.69;2066347;28;20300;-57
2022/05/25 04:07:48;;;;;;;;;;;;;;;22.10;52.48;99743.03;2069223;28;19910;-57
2022/05/25 04:08:49;;;;;;;;;;;;;;;22.08;52.66;99743.25;2065805;28;20297;-57
2022/05/25 04:09:49;;;;;;;;;;;;;;;22.09;52.59;99739.44;2062870;28;19917;-57
2022/05/25 04:10:49;;;;;;;;;;;;;;;22.08;52.58;99743.25;2069670;28;20545;-57
2022/05/25 04:11:50;;;;;;;;;;;;;;;22.09;52.58;99744.94;2066017;28;19927;-57
2022/05/25 04:12:50;;;;;;;;;;;;;;;22.08;52.53;99743.25;2068592;28;19917;-57
2022/05/25 04:13:51;;;;;;;;;;;;;;;22.08;52.70;99746.00;2066942;28;19940;-57
2022/05/25 04:14:51;;;;;;;;;;;;;;;22.09;52.79;99749.59;2066599;28;19917;-57
2022/05/25 04:15:51;;;;;;;;;;;;;;;22.08;52.78;99748.75;2068624;28;19924;-57
2022/05/25 04:16:52;;;;;;;;;;;;;;;22.08;52.51;99754.22;2072856;28;20290;-57
2022/05/25 04:17:53;;;;;;;;;;;;;;;22.08;52.70;99751.47;2075389;28;19917;-57
2022/05/25 04:18:53;;;;;;;;;;;;;;;22.08;52.46;99754.22;2067875;28;20470;-57
2022/05/25 04:19:54;;;;;;;;;;;;;;;22.07;52.55;99752.50;2064951;28;19988;-56
2022/05/25 04:20:54;;;;;;;;;;;;;;;22.08;52.79;99756.97;2072156;28;20862;-57
2022/05/25 04:21:55;;;;;;;;;;;;;;;22.08;52.66;99759.72;2071572;28;19916;-57
2022/05/25 04:22:55;;;;;;;;;;;;;;;22.07;52.65;99757.97;2067407;28;20198;-57
2022/05/25 04:23:55;;;;;;;;;;;;;;;22.07;52.84;99766.22;2066707;28;19979;-57
2022/05/25 04:24:56;;;;;;;;;;;;;;;22.06;52.56;99756.28;2061574;28;20457;-57
2022/05/25 04:25:56;;;;;;;;;;;;;;;22.07;52.58;99766.22;2064146;28;19953;-57
2022/05/25 04:26:59;;;;;;;;;;;;;;;22.06;52.51;99767.25;2064507;28;19961;-57
2022/05/25 04:27:59;;;;;;;;;;;;;;;22.07;52.81;99773.59;2062641;28;19924;-57
2022/05/25 04:29:02;;;;;;;;;;;;;;;22.06;52.75;99767.25;2067490;28;19947;-57
2022/05/25 04:30:04;;;;;;;;;;;;;;;22.07;52.68;99768.13;2063167;28;19949;-57
2022/05/25 04:31:04;;;;;;;;;;;;;;;22.05;52.69;99768.31;2066896;28;19953;-57
2022/05/25 04:32:06;;;;;;;;;;;;;;;22.05;52.64;99771.91;2063711;28;19951;-57
2022/05/25 04:33:06;;;;;;;;;;;;;;;22.05;52.81;99779.28;2067150;28;19921;-56
2022/05/25 04:34:09;;;;;;;;;;;;;;;22.04;52.74;99781.16;2067247;28;20002;-57
2022/05/25 04:35:11;;;;;;;;;;;;;;;22.05;52.82;99774.66;2066324;28;20190;-57
2022/05/25 04:36:11;;;;;;;;;;;;;;;22.04;52.67;99775.66;2066587;28;20262;-56
2022/05/25 04:38:31;;;;;;;;;;;;;;;22.04;52.66;99775.66;2066351;28;20003;-56
2022/05/25 04:39:31;;;;;;;;;;;;;;;22.04;52.75;99780.31;2066091;28;19917;-58
2022/05/25 04:40:33;;;;;;;;;;;;;;;22.04;52.78;99780.31;2067692;28;19921;-57
2022/05/25 04:41:34;;;;;;;;;;;;;;;22.04;52.60;99780.31;2065048;28;20343;-57
2022/05/25 04:42:34;;;;;;;;;;;;;;;22.04;52.71;99785.78;2065956;28;19909;-58
2022/05/25 04:43:35;;;;;;;;;;;;;;;22.04;52.76;99791.28;2066917;28;20607;-57
2022/05/25 04:44:35;;;;;;;;;;;;;;;22.04;52.54;99794.03;2066357;28;19921;-57
2022/05/25 04:45:39;;;;;;;;;;;;;;;22.05;52.78;99801.25;2067755;28;19960;-57
2022/05/25 04:46:40;;;;;;;;;;;;;;;22.05;52.64;99798.50;2068726;28;19917;-57
2022/05/25 04:47:40;;;;;;;;;;;;;;;22.04;52.74;99805.00;2067890;28;20657;-57
2022/05/25 04:48:40;;;;;;;;;;;;;;;22.04;52.81;99807.75;2069418;28;19971;-56
2022/05/25 04:49:44;;;;;;;;;;;;;;;22.03;52.65;99804.16;2066905;28;20574;-57
2022/05/25 04:50:45;;;;;;;;;;;;;;;22.05;52.61;99814.97;2067536;28;19913;-57
2022/05/25 04:51:46;;;;;;;;;;;;;;;22.04;52.78;99811.34;2067517;28;19917;-57
2022/05/25 04:52:46;;;;;;;;;;;;;;;22.04;52.67;99815.97;2067048;28;20430;-57
2022/05/25 04:53:46;;;;;;;;;;;;;;;22.04;52.60;99819.56;2065730;28;20248;-57
2022/05/25 04:54:47;;;;;;;;;;;;;;;22.04;52.79;99825.06;2068043;28;20587;-57
2022/05/25 04:57:23;;;;;;;;;;;;;;;22.04;52.70;99825.06;2065939;28;20445;-56
2022/05/25 04:58:28;;;;;;;;;;;;;;;22.03;52.70;99828.84;2067196;28;19932;-57
2022/05/25 04:59:29;;;;;;;;;;;;;;;22.03;52.74;99830.75;2069585;28;19917;-57
2022/05/25 05:00:29;;;;;;;;;;;;;;;22.03;52.88;99822.53;2065132;28;19921;-57
2022/05/25 05:01:30;;;;;;;;;;;;;;;22.01;52.64;99830.91;2065657;28;19956;-57
2022/05/25 05:02:31;;;;;;;;;;;;;;;22.02;52.54;99838.13;2068196;28;19925;-57
2022/05/25 05:03:32;;;;;;;;;;;;;;;22.02;52.78;99837.25;2064435;28;19970;-58
2022/05/25 05:04:32;;;;;;;;;;;;;;;22.02;52.59;99842.75;2072408;28;19921;-58
2022/05/25 05:05:32;;;;;;;;;;;;;;;22.02;52.59;99848.22;2067662;28;20228;-57
2022/05/25 05:06:33;;;;;;;;;;;;;;;22.01;52.69;99841.03;2068590;28;20585;-56
2022/05/25 05:07:34;;;;;;;;;;;;;;;22.02;52.66;99853.72;2068881;28;19979;-57
2022/05/25 05:08:35;;;;;;;;;;;;;;;22.01;52.65;99852.03;2062700;28;19914;-56
2022/05/25 05:09:35;;;;;;;;;;;;;;;22.01;52.81;99852.03;2074137;28;19959;-57
2022/05/25 05:10:36;;;;;;;;;;;;;;;22.01;52.80;99846.53;2061800;28;19937;-57
2022/05/25 05:11:37;;;;;;;;;;;;;;;22.01;52.85;99852.03;2066953;28;19952;-57
2022/05/25 05:12:37;;;;;;;;;;;;;;;22.00;52.76;99851.19;2067381;28;19917;-57
2022/05/25 05:13:38;;;;;;;;;;;;;;;22.00;52.65;99856.66;2067747;28;19913;-57
2022/05/25 05:14:38;;;;;;;;;;;;;;;22.01;52.83;99860.25;2071452;28;19917;-57
2022/05/25 05:15:40;;;;;;;;;;;;;;;22.01;52.64;99852.88;2064364;28;19917;-57
2022/05/25 05:16:41;;;;;;;;;;;;;;;22.01;52.77;99860.25;2066937;28;20336;-57
2022/05/25 05:17:41;;;;;;;;;;;;;;;22.01;52.63;99857.50;2065289;28;20255;-57
2022/05/25 05:18:42;;;;;;;;;;;;;;;22.01;52.69;99857.50;2064913;28;19964;-57
2022/05/25 05:19:43;;;;;;;;;;;;;;;22.01;52.79;99852.88;2062514;28;20178;-57
2022/05/25 05:20:43;;;;;;;;;;;;;;;22.01;52.68;99852.03;2069841;28;19920;-57
2022/05/25 05:21:43;;;;;;;;;;;;;;;22.00;52.63;99844.84;2065257;28;20269;-56
2022/05/25 05:22:43;;;;;;;;;;;;;;;22.01;52.58;99852.88;2064720;28;19979;-57
2022/05/25 05:23:44;;;;;;;;;;;;;;;22.00;52.80;99850.31;2076148;28;19908;-57
2022/05/25 05:24:44;;;;;;;;;;;;;;;22.00;52.78;99844.84;2067105;28;20259;-56
2022/05/25 05:25:45;;;;;;;;;;;;;;;22.00;52.83;99850.31;2065131;28;19921;-57
2022/05/25 05:26:45;;;;;;;;;;;;;;;22.00;52.68;99851.19;2068490;28;19924;-57
2022/05/25 05:27:45;;;;;;;;;;;;;;;22.00;52.58;99850.31;2068902;28;19917;-57
2022/05/25 05:28:46;;;;;;;;;;;;;;;22.01;52.65;99857.50;2064384;28;20319;-57
2022/05/25 05:29:46;;;;;;;;;;;;;;;22.00;52.47;99864.03;2066317;28;19928;-57
2022/05/25 05:30:51;;;;;;;;;;;;;;;21.99;52.63;99862.31;2067870;28;20410;-57
2022/05/25 05:31:51;;;;;;;;;;;;;;;21.99;52.86;99859.56;2066768;28;19909;-57
2022/05/25 05:32:51;;;;;;;;;;;;;;;21.99;52.85;99865.91;2066548;28;20430;-57
2022/05/25 05:33:52;;;;;;;;;;;;;;;21.98;52.66;99875.19;2060938;28;20426;-57